createdAt,value
2022-07-30T00:23:10.337Z,16.40
2022-07-30T00:25:48.802Z,16.40
2022-07-30T00:28:42.258Z,16.40
2022-07-30T00:34:22.534Z,16.40
2022-07-30T00:36:53.009Z,16.50
2022-07-30T00:39:23.320Z,16.40
2022-07-30T00:42:04.154Z,16.50
2022-07-30T00:44:31.472Z,16.50
2022-07-30T00:47:18.041Z,16.40
2022-07-30T00:49:48.130Z,16.40
2022-07-30T00:52:15.491Z,16.40
2022-07-30T00:54:42.631Z,16.40
2022-07-30T00:57:09.712Z,16.40
2022-07-30T00:59:39.389Z,16.40
2022-07-30T01:02:13.576Z,16.40
2022-07-30T01:04:40.790Z,16.40
2022-07-30T01:07:08.208Z,16.50
2022-07-30T01:09:38.021Z,16.50
2022-07-30T01:12:30.153Z,16.50
2022-07-30T01:14:58.784Z,16.60
2022-07-30T01:17:53.083Z,16.60
2022-07-30T01:20:37.990Z,16.60
2022-07-30T01:23:25.466Z,16.70
2022-07-30T01:26:00.490Z,16.80
2022-07-30T01:28:32.600Z,16.80
2022-07-30T01:31:01.695Z,16.80
2022-07-30T01:33:45.035Z,16.80
2022-07-30T01:36:24.672Z,16.90
2022-07-30T01:38:52.673Z,16.90
2022-07-30T01:41:22.542Z,16.90
2022-07-30T01:43:50.684Z,16.90
2022-07-30T01:46:20.098Z,16.90
2022-07-30T01:48:48.541Z,16.90
2022-07-30T01:51:37.584Z,16.90
2022-07-30T01:54:08.720Z,16.90
2022-07-30T01:57:00.749Z,16.90
2022-07-30T01:59:44.877Z,16.80
2022-07-30T02:02:17.933Z,16.80
2022-07-30T02:04:45.719Z,16.80
2022-07-30T02:10:28.367Z,16.70
2022-07-30T02:13:43.238Z,16.70
2022-07-30T02:16:37.177Z,16.70
2022-07-30T02:19:13.973Z,16.70
2022-07-30T02:21:52.915Z,16.70
2022-07-30T02:24:26.221Z,16.60
2022-07-30T02:27:05.750Z,16.60
2022-07-30T02:30:15.613Z,16.60
2022-07-30T02:32:45.422Z,16.50
2022-07-30T02:35:20.344Z,16.50
2022-07-30T02:41:29.608Z,16.50
2022-07-30T02:43:58.076Z,16.40
2022-07-30T02:46:26.612Z,16.40
2022-07-30T02:49:03.016Z,16.40
2022-07-30T02:51:31.310Z,16.30
2022-07-30T02:54:19.794Z,16.30
2022-07-30T02:56:49.882Z,16.30
2022-07-30T02:59:46.197Z,16.30
2022-07-30T03:13:45.784Z,16.40
2022-07-30T04:06:24.297Z,16.50
2022-07-30T05:02:34.373Z,16.90
2022-07-30T05:16:32.380Z,17.30
2022-07-30T05:19:08.894Z,17.40
2022-07-30T05:21:41.313Z,17.40
2022-07-30T05:24:11.384Z,17.40
2022-07-30T05:45:46.846Z,17.70
2022-07-30T05:48:14.386Z,17.70
2022-07-30T05:51:00.587Z,17.70
2022-07-30T05:57:09.228Z,17.70
2022-07-30T05:59:39.963Z,17.80
2022-07-30T06:20:19.469Z,18.20
2022-07-30T06:22:47.234Z,18.40
2022-07-30T06:25:18.666Z,18.70
2022-07-30T06:27:51.739Z,18.70
2022-07-30T06:30:19.157Z,18.60
2022-07-30T06:32:48.860Z,18.60
2022-07-30T06:35:26.030Z,18.40
2022-07-30T06:38:07.153Z,18.30
2022-07-30T06:40:35.406Z,18.20
2022-07-30T06:43:04.351Z,18.10
2022-07-30T06:45:31.818Z,18.10
2022-07-30T06:48:00.016Z,18.00
2022-07-30T06:51:03.479Z,18.00
2022-07-30T08:28:36.243Z,23.10
2022-07-30T08:53:33.470Z,24.50
2022-07-30T08:56:05.144Z,24.40
2022-07-30T08:58:49.582Z,24.80
2022-07-30T09:01:16.708Z,24.70
2022-07-30T09:03:46.605Z,24.30
2022-07-30T09:06:13.894Z,24.40
2022-07-30T09:08:48.505Z,24.50
2022-07-30T09:11:15.654Z,24.70
2022-07-30T09:13:45.686Z,25.10
2022-07-30T09:16:24.510Z,25.20
2022-07-30T09:18:56.041Z,25.40
2022-07-30T09:21:26.021Z,25.80
2022-07-30T09:24:10.420Z,25.90
2022-07-30T09:27:07.794Z,26.50
2022-07-30T09:29:36.346Z,27.10
2022-07-30T09:32:09.603Z,27.50
2022-07-30T09:34:40.292Z,27.30
2022-07-30T09:37:12.793Z,26.90
2022-07-30T09:39:59.437Z,26.90
2022-07-30T09:42:31.232Z,26.70
2022-07-30T09:45:08.408Z,27.00
2022-07-30T09:47:39.864Z,27.70
2022-07-30T09:50:08.150Z,28.10
2022-07-30T09:52:36.191Z,28.60
2022-07-30T09:55:13.440Z,29.00
2022-07-30T09:58:03.193Z,29.30
2022-07-30T10:00:32.901Z,29.20
2022-07-30T10:03:12.513Z,28.80
2022-07-30T10:05:53.396Z,28.90
2022-07-30T10:08:21.862Z,28.90
2022-07-30T10:10:50.930Z,28.60
2022-07-30T10:13:21.101Z,28.50
2022-07-30T10:15:50.089Z,28.90
2022-07-30T10:18:18.352Z,29.20
2022-07-30T10:20:45.847Z,29.30
2022-07-30T10:23:15.715Z,29.60
2022-07-30T10:25:49.560Z,29.40
2022-07-30T10:28:26.897Z,28.80
2022-07-30T10:30:55.063Z,29.20
2022-07-30T10:33:34.851Z,29.60
2022-07-30T10:36:04.908Z,29.10
2022-07-30T10:38:39.234Z,28.30
2022-07-30T10:41:42.709Z,28.70
2022-07-30T10:44:56.576Z,29.30
2022-07-30T10:47:29.865Z,29.60
2022-07-30T10:50:10.605Z,30.30
2022-07-30T10:52:57.117Z,30.40
2022-07-30T10:55:37.285Z,29.20
2022-07-30T10:58:14.270Z,28.40
2022-07-30T11:00:52.084Z,28.70
2022-07-30T11:03:41.464Z,29.20
2022-07-30T11:06:24.765Z,29.10
2022-07-30T11:08:57.107Z,30.00
2022-07-30T11:11:59.670Z,30.80
2022-07-30T11:14:13.170Z,31.00
2022-07-30T11:16:40.074Z,30.10
2022-07-30T11:19:56.066Z,29.20
2022-07-30T11:22:25.287Z,29.20
2022-07-30T11:24:52.883Z,28.60
2022-07-30T11:27:41.396Z,28.20
2022-07-30T11:30:18.593Z,28.20
2022-07-30T11:32:56.897Z,28.30
2022-07-30T11:35:25.836Z,28.80
2022-07-30T11:38:06.901Z,28.20
2022-07-30T11:40:56.959Z,27.50
2022-07-30T11:43:36.172Z,27.10
2022-07-30T11:46:15.806Z,26.60
2022-07-30T11:48:57.528Z,27.40
2022-07-30T11:51:24.832Z,28.80
2022-07-30T11:54:05.844Z,29.60
2022-07-30T11:56:33.850Z,30.20
2022-07-30T11:59:03.733Z,29.90
2022-07-30T12:01:33.494Z,30.10
2022-07-30T12:04:08.982Z,30.20
2022-07-30T12:06:48.175Z,30.10
2022-07-30T12:09:29.197Z,30.20
2022-07-30T12:11:57.319Z,30.70
2022-07-30T12:14:24.404Z,31.00
2022-07-30T12:16:53.545Z,30.30
2022-07-30T12:19:20.734Z,30.10
2022-07-30T12:21:52.466Z,30.70
2022-07-30T12:24:26.411Z,31.00
2022-07-30T12:27:04.222Z,30.50
2022-07-30T12:29:35.152Z,29.90
2022-07-30T12:32:02.446Z,30.60
2022-07-30T12:34:29.403Z,30.40
2022-07-30T12:37:06.713Z,30.70
2022-07-30T12:39:33.561Z,31.30
2022-07-30T12:42:00.626Z,31.60
2022-07-30T12:44:38.667Z,32.10
2022-07-30T12:47:07.682Z,32.20
2022-07-30T12:49:39.528Z,31.90
2022-07-30T12:52:29.370Z,31.60
2022-07-30T12:55:10.122Z,31.80
2022-07-30T12:58:01.815Z,31.90
2022-07-30T13:00:52.407Z,32.30
2022-07-30T13:03:24.432Z,32.30
2022-07-30T13:05:55.694Z,32.70
2022-07-30T13:09:03.138Z,32.20
2022-07-30T13:11:42.216Z,32.00
2022-07-30T13:14:17.256Z,31.90
2022-07-30T13:16:44.582Z,32.10
2022-07-30T13:19:12.201Z,32.30
2022-07-30T13:21:40.852Z,31.80
2022-07-30T13:24:18.467Z,31.90
2022-07-30T13:26:45.980Z,31.90
2022-07-30T13:29:13.762Z,30.80
2022-07-30T13:31:42.801Z,30.10
2022-07-30T13:34:11.218Z,30.60
2022-07-30T13:36:38.412Z,31.30
2022-07-30T13:39:05.501Z,31.50
2022-07-30T13:41:36.336Z,30.80
2022-07-30T13:44:04.491Z,31.20
2022-07-30T13:46:31.574Z,31.60
2022-07-30T13:48:58.762Z,31.90
2022-07-30T13:51:26.046Z,31.90
2022-07-30T13:53:53.321Z,31.80
2022-07-30T13:56:21.692Z,31.40
2022-07-30T13:58:49.077Z,31.60
2022-07-30T14:01:17.719Z,31.30
2022-07-30T14:03:49.399Z,31.30
2022-07-30T14:06:19.334Z,31.40
2022-07-30T14:08:49.749Z,30.90
2022-07-30T14:11:18.006Z,30.60
2022-07-30T14:13:45.897Z,29.70
2022-07-30T14:16:42.462Z,29.10
2022-07-30T14:19:01.154Z,28.60
2022-07-30T14:21:31.394Z,28.10
2022-07-30T14:23:58.478Z,27.60
2022-07-30T14:26:25.696Z,27.00
2022-07-30T14:29:06.036Z,27.10
2022-07-30T14:31:33.955Z,27.10
2022-07-30T14:34:01.413Z,27.10
2022-07-30T14:36:31.090Z,27.40
2022-07-30T14:38:58.228Z,27.60
2022-07-30T14:41:26.574Z,27.80
2022-07-30T14:43:53.978Z,27.80
2022-07-30T14:46:23.925Z,27.80
2022-07-30T14:48:53.675Z,27.60
2022-07-30T14:51:26.168Z,27.50
2022-07-30T14:53:54.450Z,27.50
2022-07-30T14:56:25.190Z,27.70
2022-07-30T14:58:53.152Z,27.90
2022-07-30T15:01:22.612Z,28.20
2022-07-30T15:03:49.686Z,28.30
2022-07-30T15:06:25.146Z,28.20
2022-07-30T15:08:55.522Z,28.00
2022-07-30T15:11:22.661Z,28.00
2022-07-30T15:13:53.253Z,27.90
2022-07-30T15:16:31.883Z,27.60
2022-07-30T15:19:01.601Z,27.50
2022-07-30T15:21:28.788Z,27.60
2022-07-30T15:23:56.236Z,27.20
2022-07-30T15:26:23.745Z,27.10
2022-07-30T15:29:10.332Z,27.10
2022-07-30T15:31:40.228Z,26.80
2022-07-30T15:34:12.714Z,26.80
2022-07-30T15:36:45.384Z,26.80
2022-07-30T15:39:13.587Z,26.70
2022-07-30T15:41:45.620Z,26.60
2022-07-30T15:44:13.988Z,26.60
2022-07-30T15:46:43.677Z,26.60
2022-07-30T15:56:49.927Z,26.70
2022-07-30T15:59:20.874Z,26.90
2022-07-30T16:01:51.067Z,26.80
2022-07-30T16:04:19.598Z,26.60
2022-07-30T16:07:05.952Z,26.40
2022-07-30T16:29:34.886Z,26.60
2022-07-30T16:33:05.893Z,26.60
2022-07-30T16:35:36.981Z,26.50
2022-07-30T16:38:26.416Z,26.30
2022-07-30T16:40:54.101Z,26.20
2022-07-30T16:46:56.952Z,25.90
2022-07-30T16:49:33.374Z,25.70
2022-07-30T16:53:14.123Z,25.60
2022-07-30T16:55:41.427Z,25.80
2022-07-30T16:58:09.123Z,25.70
2022-07-30T17:00:36.953Z,25.70
2022-07-30T17:03:04.441Z,25.60
2022-07-30T17:05:31.791Z,25.50
2022-07-30T17:07:59.109Z,25.40
2022-07-30T17:10:26.728Z,25.40
2022-07-30T17:12:57.068Z,25.30
2022-07-30T17:15:32.850Z,25.10
2022-07-30T17:18:03.793Z,24.90
2022-07-30T17:20:32.169Z,24.80
2022-07-30T17:26:52.181Z,24.50
2022-07-30T17:32:29.947Z,24.20
2022-07-30T17:35:17.829Z,24.10
2022-07-30T17:40:39.984Z,23.90
2022-07-30T17:43:21.467Z,23.90
2022-07-30T17:45:48.824Z,23.80
2022-07-30T17:48:19.002Z,23.80
2022-07-30T17:50:46.767Z,23.80
2022-07-30T17:53:13.877Z,23.80
2022-07-30T17:55:41.466Z,23.70
2022-07-30T17:58:27.980Z,23.70
2022-07-30T18:00:55.914Z,23.50
2022-07-30T18:03:25.700Z,23.50
2022-07-30T18:06:23.652Z,23.40
2022-07-30T18:08:51.611Z,23.40
2022-07-30T18:11:26.564Z,23.30
2022-07-30T18:24:58.180Z,23.10
2022-07-30T18:39:46.615Z,22.40
2022-07-30T23:25:11.601Z,17.50
2022-07-30T23:27:43.327Z,17.50
2022-07-30T23:30:11.713Z,17.40
2022-07-30T23:32:42.684Z,17.40
2022-07-30T23:35:10.593Z,17.40
2022-07-30T23:37:48.100Z,17.30
2022-07-30T23:40:20.373Z,17.30
2022-07-30T23:42:50.285Z,17.30
2022-07-30T23:45:18.244Z,17.20
2022-07-30T23:48:01.434Z,17.10
2022-07-30T23:50:35.926Z,17.00
2022-07-30T23:53:07.084Z,17.00
2022-07-30T23:55:36.180Z,16.90
